createdAt,value
2019-05-23T00:01:58.339Z,16.80
2019-05-23T00:04:28.679Z,16.80
2019-05-23T00:07:00.532Z,16.90
2019-05-23T00:09:32.682Z,16.90
2019-05-23T00:12:21.795Z,16.90
2019-05-23T00:14:55.032Z,16.80
2019-05-23T00:17:26.818Z,16.80
2019-05-23T00:19:59.020Z,16.70
2019-05-23T00:22:31.318Z,16.70
2019-05-23T00:25:01.758Z,16.60
2019-05-23T00:27:32.837Z,16.60
2019-05-23T00:30:06.397Z,16.50
2019-05-23T00:32:38.821Z,16.50
2019-05-23T00:35:10.118Z,16.50
2019-05-23T00:37:53.856Z,16.40
2019-05-23T00:40:26.113Z,16.40
2019-05-23T00:43:02.590Z,16.40
2019-05-23T00:45:33.221Z,16.40
2019-05-23T00:48:06.365Z,16.30
2019-05-23T00:50:39.055Z,16.30
2019-05-23T00:53:10.581Z,16.30
2019-05-23T00:55:43.143Z,16.20
2019-05-23T00:58:15.418Z,16.20
2019-05-23T01:00:47.780Z,16.10
2019-05-23T01:03:19.948Z,16.10
2019-05-23T01:05:49.198Z,16.10
2019-05-23T01:08:21.638Z,16.00
2019-05-23T01:10:54.852Z,16.10
2019-05-23T01:13:26.454Z,16.00
2019-05-23T01:15:59.107Z,16.00
2019-05-23T01:18:30.354Z,16.10
2019-05-23T01:21:02.724Z,16.10
2019-05-23T01:23:40.090Z,16.10
2019-05-23T01:26:12.143Z,16.20
2019-05-23T01:28:41.377Z,16.20
2019-05-23T01:31:33.763Z,16.10
2019-05-23T01:34:06.647Z,16.10
2019-05-23T01:36:38.745Z,16.10
2019-05-23T01:39:16.011Z,16.00
2019-05-23T01:41:47.494Z,16.10
2019-05-23T01:44:20.039Z,16.00
2019-05-23T01:46:49.023Z,15.90
2019-05-23T01:49:22.373Z,15.90
2019-05-23T01:51:53.585Z,15.80
2019-05-23T01:54:24.660Z,15.80
2019-05-23T01:56:58.256Z,15.80
2019-05-23T01:59:27.845Z,15.70
2019-05-23T02:01:59.277Z,15.80
2019-05-23T02:04:30.154Z,15.70
2019-05-23T02:07:01.629Z,15.70
2019-05-23T02:09:33.636Z,15.70
2019-05-23T02:12:06.325Z,15.70
2019-05-23T02:14:35.558Z,15.70
2019-05-23T02:17:06.886Z,15.80
2019-05-23T02:19:39.990Z,15.80
2019-05-23T02:22:10.858Z,15.80
2019-05-23T02:24:39.602Z,15.80
2019-05-23T02:27:12.002Z,15.80
2019-05-23T02:29:43.093Z,15.80
2019-05-23T02:32:18.166Z,15.80
2019-05-23T02:34:48.097Z,15.90
2019-05-23T02:37:19.973Z,15.90
2019-05-23T02:39:54.777Z,15.90
2019-05-23T02:42:26.192Z,15.80
2019-05-23T02:44:58.650Z,15.80
2019-05-23T02:47:30.978Z,15.80
2019-05-23T02:50:03.175Z,15.80
2019-05-23T02:52:51.286Z,15.90
2019-05-23T02:55:34.704Z,15.80
2019-05-23T02:58:25.518Z,15.90
2019-05-23T03:01:11.361Z,15.90
2019-05-23T03:03:43.167Z,15.90
2019-05-23T03:06:15.151Z,16.00
2019-05-23T03:08:47.225Z,16.00
2019-05-23T03:11:29.592Z,16.00
2019-05-23T03:14:02.183Z,16.10
2019-05-23T03:16:32.885Z,16.10
2019-05-23T03:19:20.233Z,16.10
2019-05-23T03:21:54.559Z,16.20
2019-05-23T03:24:29.444Z,16.30
2019-05-23T03:27:01.936Z,16.30
2019-05-23T03:29:36.597Z,16.30
2019-05-23T03:32:23.753Z,16.40
2019-05-23T03:34:58.263Z,16.50
2019-05-23T03:37:30.006Z,16.60
2019-05-23T03:40:01.610Z,16.70
2019-05-23T03:45:23.374Z,16.80
2019-05-23T03:47:53.652Z,16.90
2019-05-23T03:50:25.648Z,16.90
2019-05-23T03:52:58.926Z,17.00
2019-05-23T03:55:28.880Z,17.00
2019-05-23T03:58:05.045Z,17.10
2019-05-23T04:00:37.956Z,17.20
2019-05-23T04:03:10.609Z,17.30
2019-05-23T04:05:58.686Z,17.30
2019-05-23T04:08:30.070Z,17.30
2019-05-23T04:10:59.506Z,17.30
2019-05-23T04:13:28.638Z,17.40
2019-05-23T04:16:01.137Z,17.40
2019-05-23T04:18:30.236Z,17.50
2019-05-23T04:21:01.956Z,17.60
2019-05-23T04:23:34.613Z,17.70
2019-05-23T04:26:03.819Z,17.70
2019-05-23T04:28:34.411Z,17.80
2019-05-23T04:31:04.888Z,17.80
2019-05-23T04:33:36.197Z,17.90
2019-05-23T04:36:06.832Z,17.90
2019-05-23T04:38:38.075Z,18.00
2019-05-23T04:41:15.544Z,18.10
2019-05-23T04:43:47.004Z,18.20
2019-05-23T04:46:20.323Z,18.30
2019-05-23T04:48:52.448Z,18.10
2019-05-23T04:51:31.633Z,18.10
2019-05-23T04:56:53.474Z,17.90
2019-05-23T04:59:24.756Z,18.00
2019-05-23T05:01:58.595Z,17.90
2019-05-23T05:04:28.047Z,17.90
2019-05-23T05:06:59.928Z,17.80
2019-05-23T05:09:32.263Z,17.90
2019-05-23T05:12:02.415Z,18.00
2019-05-23T05:14:36.859Z,18.00
2019-05-23T05:17:06.417Z,18.20
2019-05-23T05:19:39.989Z,18.20
2019-05-23T05:22:10.171Z,18.30
2019-05-23T05:24:43.113Z,18.60
2019-05-23T05:27:17.204Z,18.90
2019-05-23T05:29:48.501Z,19.10
2019-05-23T05:32:22.405Z,19.40
2019-05-23T05:34:52.887Z,19.40
2019-05-23T05:37:22.435Z,19.30
2019-05-23T05:39:51.368Z,19.30
2019-05-23T05:42:22.007Z,19.30
2019-05-23T05:44:54.212Z,19.20
2019-05-23T05:47:29.482Z,19.30
2019-05-23T05:50:01.379Z,19.40
2019-05-23T05:52:31.989Z,19.50
2019-05-23T05:55:06.680Z,19.60
2019-05-23T05:57:39.153Z,19.60
2019-05-23T06:00:18.314Z,19.60
2019-05-23T06:03:03.503Z,19.60
2019-05-23T06:05:22.893Z,19.50
2019-05-23T06:07:55.156Z,19.50
2019-05-23T06:10:27.013Z,19.40
2019-05-23T06:12:58.129Z,19.40
2019-05-23T06:15:33.366Z,19.40
2019-05-23T06:18:05.048Z,19.50
2019-05-23T06:20:40.646Z,19.50
2019-05-23T06:23:11.574Z,19.70
2019-05-23T06:25:46.672Z,19.80
2019-05-23T06:28:21.203Z,19.80
2019-05-23T06:30:51.681Z,20.10
2019-05-23T06:33:23.799Z,20.20
2019-05-23T06:35:55.560Z,20.00
2019-05-23T06:38:27.643Z,20.00
2019-05-23T06:40:57.127Z,20.00
2019-05-23T06:43:28.470Z,20.20
2019-05-23T06:45:59.716Z,20.30
2019-05-23T06:48:30.822Z,20.50
2019-05-23T06:51:01.249Z,20.60
2019-05-23T06:53:32.462Z,20.70
2019-05-23T06:56:02.863Z,21.00
2019-05-23T06:58:36.929Z,21.30
2019-05-23T07:01:06.165Z,21.30
2019-05-23T07:03:42.966Z,21.50
2019-05-23T07:06:13.127Z,21.40
2019-05-23T07:08:45.734Z,21.30
2019-05-23T07:11:17.603Z,21.40
2019-05-23T07:13:51.045Z,21.70
2019-05-23T07:16:22.276Z,22.10
2019-05-23T07:18:54.651Z,22.50
2019-05-23T07:21:25.211Z,22.70
2019-05-23T07:23:56.956Z,23.00
2019-05-23T07:26:26.991Z,23.20
2019-05-23T07:28:56.609Z,23.40
2019-05-23T07:31:28.159Z,23.60
2019-05-23T07:34:02.143Z,23.60
2019-05-23T07:39:21.625Z,23.20
2019-05-23T07:41:55.296Z,23.20
2019-05-23T07:44:29.763Z,23.40
2019-05-23T07:47:02.719Z,23.30
2019-05-23T07:49:33.655Z,23.50
2019-05-23T07:52:09.240Z,23.20
2019-05-23T07:54:40.734Z,23.30
2019-05-23T07:57:11.965Z,23.30
2019-05-23T07:59:42.512Z,23.50
2019-05-23T08:02:19.202Z,23.70
2019-05-23T08:04:51.195Z,23.90
2019-05-23T08:07:26.021Z,23.90
2019-05-23T08:10:03.714Z,24.10
2019-05-23T08:12:36.567Z,24.10
2019-05-23T08:15:09.617Z,24.10
2019-05-23T08:17:39.845Z,24.40
2019-05-23T08:20:12.201Z,24.40
2019-05-23T08:22:43.671Z,24.60
2019-05-23T08:25:13.660Z,24.90
2019-05-23T08:27:47.329Z,24.90
2019-05-23T08:30:18.848Z,25.50
2019-05-23T08:32:48.030Z,25.50
2019-05-23T08:35:18.938Z,25.80
2019-05-23T08:37:49.436Z,25.70
2019-05-23T08:43:08.454Z,25.80
2019-05-23T08:45:41.557Z,25.90
2019-05-23T08:48:13.472Z,26.20
2019-05-23T08:50:43.222Z,26.70
2019-05-23T08:53:13.143Z,27.40
2019-05-23T08:55:46.978Z,29.00
2019-05-23T08:58:19.963Z,28.90
2019-05-23T09:00:57.539Z,28.20
2019-05-23T09:03:30.107Z,27.80
2019-05-23T09:06:02.415Z,27.90
2019-05-23T09:08:35.891Z,29.30
2019-05-23T09:11:06.324Z,29.80
2019-05-23T09:13:35.729Z,30.80
2019-05-23T09:16:08.581Z,31.10
2019-05-23T09:18:37.772Z,31.70
2019-05-23T09:21:08.172Z,31.30
2019-05-23T09:23:38.551Z,31.50
2019-05-23T09:26:11.120Z,30.20
2019-05-23T09:28:43.497Z,30.10
2019-05-23T09:31:12.987Z,30.80
2019-05-23T09:33:47.981Z,29.90
2019-05-23T09:36:19.774Z,29.90
2019-05-23T09:38:51.643Z,30.40
2019-05-23T09:41:20.499Z,30.10
2019-05-23T09:43:54.185Z,30.40
2019-05-23T09:46:24.595Z,30.40
2019-05-23T09:48:56.380Z,30.70
2019-05-23T09:54:18.977Z,31.60
2019-05-23T09:56:47.955Z,31.90
2019-05-23T09:59:17.371Z,31.80
2019-05-23T10:01:48.227Z,31.60
2019-05-23T10:04:18.625Z,31.40
2019-05-23T10:06:47.503Z,32.00
2019-05-23T10:09:21.370Z,32.90
2019-05-23T10:11:51.998Z,33.30
2019-05-23T10:17:15.011Z,32.50
2019-05-23T10:19:56.133Z,32.50
2019-05-23T10:22:26.558Z,32.60
2019-05-23T10:24:56.777Z,32.90
2019-05-23T10:27:36.099Z,33.20
2019-05-23T10:30:09.272Z,33.20
2019-05-23T10:32:39.794Z,33.10
2019-05-23T10:35:11.602Z,32.50
2019-05-23T10:37:41.683Z,32.60
2019-05-23T10:40:12.628Z,32.60
2019-05-23T10:42:45.432Z,33.20
2019-05-23T10:45:19.043Z,33.60
2019-05-23T10:47:49.843Z,34.20
2019-05-23T10:50:20.390Z,34.50
2019-05-23T10:52:52.220Z,34.80
2019-05-23T10:55:26.442Z,34.70
2019-05-23T10:58:05.106Z,35.20
2019-05-23T11:00:39.388Z,35.00
2019-05-23T11:03:11.841Z,34.10
2019-05-23T11:05:54.115Z,33.90
2019-05-23T11:08:29.358Z,33.20
2019-05-23T11:10:57.911Z,32.10
2019-05-23T11:13:32.260Z,32.70
2019-05-23T11:16:01.507Z,33.10
2019-05-23T11:18:38.002Z,32.50
2019-05-23T11:21:07.537Z,32.80
2019-05-23T11:23:41.722Z,32.60
2019-05-23T11:26:12.814Z,33.10
2019-05-23T11:28:42.598Z,32.80
2019-05-23T11:31:13.612Z,32.60
2019-05-23T11:33:45.305Z,31.90
2019-05-23T11:36:33.702Z,31.80
2019-05-23T11:38:51.752Z,32.60
2019-05-23T11:41:25.216Z,33.40
2019-05-23T11:43:57.382Z,33.80
2019-05-23T11:46:30.966Z,34.20
2019-05-23T11:49:05.953Z,34.40
2019-05-23T11:51:34.807Z,34.60
2019-05-23T11:54:09.089Z,35.40
2019-05-23T11:56:42.295Z,35.50
2019-05-23T11:59:14.121Z,34.90
2019-05-23T12:01:52.577Z,33.60
2019-05-23T12:04:23.798Z,33.40
2019-05-23T12:06:56.525Z,33.40
2019-05-23T12:09:26.692Z,34.20
2019-05-23T12:11:58.119Z,34.80
2019-05-23T12:14:26.984Z,34.90
2019-05-23T12:16:58.765Z,35.00
2019-05-23T12:19:29.851Z,35.50
2019-05-23T12:21:59.621Z,35.70
2019-05-23T12:24:35.475Z,36.30
2019-05-23T12:27:05.381Z,35.80
2019-05-23T12:29:37.567Z,35.30
2019-05-23T12:32:07.968Z,34.10
2019-05-23T12:34:38.465Z,33.80
2019-05-23T12:37:19.180Z,34.30
2019-05-23T12:39:46.147Z,34.00
2019-05-23T12:42:16.403Z,34.00
2019-05-23T12:44:48.417Z,34.60
2019-05-23T12:47:22.390Z,35.20
2019-05-23T12:49:56.453Z,35.30
2019-05-23T12:52:25.907Z,34.20
2019-05-23T12:54:55.245Z,33.80
2019-05-23T12:57:26.714Z,34.20
2019-05-23T12:59:59.827Z,35.00
2019-05-23T13:02:30.621Z,36.10
2019-05-23T13:05:03.894Z,36.80
2019-05-23T13:07:36.810Z,37.40
2019-05-23T13:10:09.305Z,36.60
2019-05-23T13:12:39.865Z,35.90
2019-05-23T13:15:10.832Z,35.40
2019-05-23T13:17:42.374Z,34.70
2019-05-23T13:20:12.157Z,35.20
2019-05-23T13:22:45.516Z,35.30
2019-05-23T13:25:20.927Z,35.20
2019-05-23T13:27:52.817Z,35.40
2019-05-23T13:30:24.013Z,35.80
2019-05-23T13:32:52.874Z,35.40
2019-05-23T13:35:23.076Z,34.50
2019-05-23T13:37:54.488Z,33.60
2019-05-23T13:40:26.168Z,32.40
2019-05-23T13:42:58.943Z,31.90
2019-05-23T13:45:30.500Z,31.80
2019-05-23T13:48:00.443Z,32.60
2019-05-23T13:50:30.594Z,32.40
2019-05-23T13:53:04.262Z,32.10
2019-05-23T13:55:39.728Z,31.30
2019-05-23T13:58:11.834Z,30.90
2019-05-23T14:00:41.472Z,31.00
2019-05-23T14:03:13.411Z,31.30
2019-05-23T14:05:44.646Z,29.80
2019-05-23T14:08:18.484Z,29.30
2019-05-23T14:10:48.455Z,28.90
2019-05-23T14:13:21.938Z,29.10
2019-05-23T14:15:53.873Z,29.00
2019-05-23T14:18:25.523Z,28.70
2019-05-23T14:20:57.235Z,28.20
2019-05-23T14:23:30.418Z,27.90
2019-05-23T14:26:02.248Z,26.20
2019-05-23T14:28:33.781Z,26.20
2019-05-23T14:31:12.074Z,26.10
2019-05-23T14:33:46.163Z,26.20
2019-05-23T14:36:23.725Z,26.10
2019-05-23T14:38:58.716Z,25.90
2019-05-23T14:41:44.646Z,25.90
2019-05-23T14:44:07.092Z,25.80
2019-05-23T14:46:41.041Z,26.00
2019-05-23T14:49:16.866Z,25.70
2019-05-23T14:51:47.816Z,25.40
2019-05-23T14:54:30.868Z,24.90
2019-05-23T14:57:01.413Z,24.80
2019-05-23T14:59:31.107Z,24.50
2019-05-23T15:02:01.538Z,23.90
2019-05-23T15:04:31.365Z,23.60
2019-05-23T15:07:01.589Z,23.60
2019-05-23T15:09:34.800Z,23.20
2019-05-23T15:12:09.422Z,23.00
2019-05-23T15:14:43.415Z,22.90
2019-05-23T15:17:13.066Z,22.90
2019-05-23T15:19:45.316Z,22.80
2019-05-23T15:22:15.709Z,22.70
2019-05-23T15:24:48.803Z,22.50
2019-05-23T15:27:18.057Z,22.30
2019-05-23T15:29:47.343Z,21.90
2019-05-23T15:32:18.078Z,21.90
2019-05-23T15:34:50.117Z,22.00
2019-05-23T15:37:22.628Z,22.00
2019-05-23T15:39:50.710Z,22.10
2019-05-23T15:42:30.846Z,21.70
2019-05-23T15:44:59.795Z,21.70
2019-05-23T15:47:30.334Z,21.60
2019-05-23T15:50:06.090Z,21.50
2019-05-23T15:52:45.371Z,21.30
2019-05-23T15:55:37.108Z,21.30
2019-05-23T15:58:08.596Z,21.20
2019-05-23T16:03:49.359Z,21.00
2019-05-23T16:06:22.575Z,20.90
2019-05-23T16:08:54.529Z,20.70
2019-05-23T16:11:24.748Z,20.80
2019-05-23T16:14:03.999Z,20.70
2019-05-23T16:16:32.783Z,20.70
2019-05-23T16:19:13.089Z,20.70
2019-05-23T16:21:44.676Z,20.60
2019-05-23T16:24:15.413Z,20.50
2019-05-23T16:26:45.648Z,20.50
2019-05-23T16:29:17.053Z,20.50
2019-05-23T16:31:48.383Z,20.40
2019-05-23T16:34:21.280Z,20.40
2019-05-23T16:36:50.173Z,20.30
2019-05-23T16:39:23.806Z,20.10
2019-05-23T16:41:55.157Z,20.10
2019-05-23T16:44:26.207Z,20.20
2019-05-23T16:46:55.168Z,20.20
2019-05-23T16:51:54.985Z,19.90
2019-05-23T16:54:27.686Z,19.90
2019-05-23T16:57:05.209Z,19.70
2019-05-23T16:59:41.389Z,19.50
2019-05-23T17:02:23.048Z,19.60
2019-05-23T17:05:09.137Z,19.90
2019-05-23T17:07:28.973Z,19.70
2019-05-23T17:10:13.250Z,19.70
2019-05-23T17:13:00.035Z,19.60
2019-05-23T17:15:46.901Z,19.40
2019-05-23T17:18:18.434Z,19.40
2019-05-23T17:20:59.189Z,19.50
2019-05-23T17:23:41.946Z,19.50
2019-05-23T17:26:13.496Z,19.50
2019-05-23T17:28:47.078Z,19.40
2019-05-23T17:31:22.165Z,19.40
2019-05-23T17:33:53.319Z,19.40
2019-05-23T17:36:22.439Z,19.50
2019-05-23T17:38:52.732Z,19.60
2019-05-23T17:41:23.126Z,19.70
2019-05-23T17:43:54.127Z,19.70
2019-05-23T17:46:24.564Z,19.60
2019-05-23T17:48:56.884Z,19.50
2019-05-23T17:51:27.821Z,19.50
2019-05-23T17:54:00.419Z,19.50
2019-05-23T17:56:31.664Z,19.10
2019-05-23T17:59:02.829Z,19.20
2019-05-23T18:01:33.456Z,19.20
2019-05-23T18:04:05.462Z,19.10
2019-05-23T18:06:36.462Z,18.90
2019-05-23T18:09:09.451Z,18.90
2019-05-23T18:11:38.904Z,18.90
2019-05-23T18:14:12.924Z,18.90
2019-05-23T18:16:45.974Z,18.90
2019-05-23T18:19:17.218Z,18.90
2019-05-23T18:21:49.703Z,19.00
2019-05-23T18:24:24.068Z,18.80
2019-05-23T18:27:01.762Z,18.50
2019-05-23T18:29:35.952Z,18.50
2019-05-23T18:32:08.406Z,18.50
2019-05-23T18:34:39.852Z,18.50
2019-05-23T18:37:10.587Z,18.60
2019-05-23T18:39:45.545Z,18.60
2019-05-23T18:42:15.920Z,18.50
2019-05-23T18:44:49.516Z,18.50
2019-05-23T18:47:27.893Z,18.50
2019-05-23T18:49:56.854Z,18.40
2019-05-23T18:52:27.675Z,18.40
2019-05-23T18:54:59.188Z,18.40
2019-05-23T18:57:28.680Z,18.40
2019-05-23T19:00:01.356Z,18.30
2019-05-23T19:02:32.155Z,18.30
2019-05-23T19:05:05.653Z,18.20
2019-05-23T19:07:46.449Z,18.20
2019-05-23T19:10:17.814Z,18.20
2019-05-23T19:12:51.362Z,18.20
2019-05-23T19:17:51.425Z,18.10
2019-05-23T19:20:35.458Z,18.10
2019-05-23T19:23:05.655Z,17.80
2019-05-23T19:25:39.012Z,17.60
2019-05-23T19:28:11.434Z,17.60
2019-05-23T19:30:49.634Z,17.60
2019-05-23T19:33:23.362Z,17.60
2019-05-23T19:36:04.465Z,17.50
2019-05-23T19:38:34.247Z,17.50
2019-05-23T19:41:03.924Z,17.50
2019-05-23T19:43:37.204Z,17.50
2019-05-23T19:46:06.060Z,17.40
2019-05-23T19:48:38.930Z,17.20
2019-05-23T19:51:11.269Z,17.30
2019-05-23T19:53:41.848Z,17.30
2019-05-23T19:56:13.036Z,17.30
2019-05-23T19:58:46.733Z,17.40
2019-05-23T20:01:31.639Z,17.30
2019-05-23T20:04:01.150Z,17.30
2019-05-23T20:06:40.174Z,17.30
2019-05-23T20:09:13.177Z,17.40
2019-05-23T20:11:53.953Z,17.30
2019-05-23T20:14:14.014Z,17.30
2019-05-23T20:16:47.307Z,17.30
2019-05-23T20:19:18.446Z,17.30
2019-05-23T20:21:51.511Z,17.30
2019-05-23T20:24:30.083Z,17.30
2019-05-23T20:27:03.584Z,17.20
2019-05-23T20:29:32.269Z,17.20
2019-05-23T20:32:02.245Z,17.20
2019-05-23T20:37:02.988Z,17.20
2019-05-23T20:39:35.459Z,17.00
2019-05-23T20:42:11.540Z,16.90
2019-05-23T20:44:39.946Z,16.90
2019-05-23T20:47:09.399Z,16.80
2019-05-23T20:49:38.451Z,16.70
2019-05-23T20:52:09.504Z,16.60
2019-05-23T20:54:38.960Z,16.60
2019-05-23T20:57:08.217Z,16.50
2019-05-23T20:59:37.741Z,16.60
2019-05-23T21:02:06.872Z,16.60
2019-05-23T21:04:35.956Z,16.50
2019-05-23T21:07:04.809Z,16.50
2019-05-23T21:09:33.772Z,16.50
2019-05-23T21:12:02.703Z,16.50
2019-05-23T21:14:33.165Z,16.50
2019-05-23T21:17:02.025Z,16.40
2019-05-23T21:19:31.045Z,16.40
2019-05-23T21:22:00.674Z,16.40
2019-05-23T21:24:31.140Z,16.40
2019-05-23T21:27:00.092Z,16.40
2019-05-23T21:29:29.068Z,16.40
2019-05-23T21:31:57.938Z,16.40
2019-05-23T21:34:26.790Z,16.50
2019-05-23T21:36:55.580Z,16.40
2019-05-23T21:39:24.413Z,16.40
2019-05-23T21:41:53.635Z,16.40
2019-05-23T21:44:22.395Z,16.30
2019-05-23T21:46:51.550Z,16.30
2019-05-23T21:49:20.368Z,16.20
2019-05-23T21:51:51.741Z,16.40
2019-05-23T21:54:19.650Z,16.30
2019-05-23T21:56:48.462Z,16.30
2019-05-23T21:59:17.295Z,16.40
2019-05-23T22:01:47.717Z,16.30
2019-05-23T22:04:27.033Z,16.20
2019-05-23T22:07:00.700Z,16.10
2019-05-23T22:09:29.628Z,16.00
2019-05-23T22:11:58.506Z,15.90
2019-05-23T22:14:27.370Z,15.80
2019-05-23T22:16:56.270Z,15.80
2019-05-23T22:19:26.680Z,15.70
2019-05-23T22:21:55.443Z,15.50
2019-05-23T22:24:24.480Z,15.40
2019-05-23T22:26:53.368Z,15.30
2019-05-23T22:29:22.600Z,15.20
2019-05-23T22:31:51.887Z,15.20
2019-05-23T22:34:28.355Z,15.10
2019-05-23T22:36:58.696Z,15.20
2019-05-23T22:39:27.535Z,15.10
2019-05-23T22:41:56.323Z,15.00
2019-05-23T22:44:25.343Z,15.00
2019-05-23T22:46:54.205Z,15.00
2019-05-23T22:49:23.087Z,15.00
2019-05-23T22:51:51.905Z,15.00
2019-05-23T22:54:20.761Z,15.00
2019-05-23T22:56:49.543Z,15.00
2019-05-23T22:59:18.367Z,15.00
2019-05-23T23:01:47.166Z,15.00
2019-05-23T23:04:16.301Z,15.10
2019-05-23T23:06:45.150Z,15.10
2019-05-23T23:09:13.993Z,15.20
2019-05-23T23:11:43.053Z,15.20
2019-05-23T23:14:11.815Z,15.10
2019-05-23T23:16:42.247Z,15.10
2019-05-23T23:19:11.273Z,15.20
2019-05-23T23:21:40.167Z,15.10
2019-05-23T23:24:08.974Z,15.00
2019-05-23T23:26:37.952Z,15.00
2019-05-23T23:29:07.163Z,14.90
2019-05-23T23:31:36.022Z,14.90
2019-05-23T23:34:04.770Z,14.80
2019-05-23T23:36:33.612Z,14.90
2019-05-23T23:39:02.449Z,14.90
2019-05-23T23:41:31.290Z,14.90
2019-05-23T23:44:00.456Z,14.90
2019-05-23T23:46:48.250Z,15.00
2019-05-23T23:49:35.197Z,14.90
2019-05-23T23:52:22.070Z,14.90
2019-05-23T23:55:08.664Z,14.90
2019-05-23T23:57:56.695Z,15.00
